Bear, Idaho
Current Conditions -  °F | °C
As of 10:51 PM on Saturday 25 Oct 2014 (Local Time) from KMYL Reporting Station
Overcast Overcast  
Wind Chill: 51°   Ceiling: 6500
Heat Index: 51°   Visibility: 10mi
Dew Point: 31°   Wind: 16mph
Humidity: 46%   Direction: 170°S
Pressure: 29.81"   Gusts: 23mph
Location:  44.9328°N, 116.572°W
Report Text: KMYL 260451Z AUTO 17014G20KT 10SM OVC065 11/M01 A2981 RMK AO2 SLP085 T01061006
Loading
Personal Weather Stations






























Interactive Weather Map
Tropical Storm Tracking
New forecast layout! Learn more

10-Day Weather Forecast

Advertisements
Track Severe Weather on mobile